Time;durP1;ratioP1;P1;durP2;ratioP2;P2;SDS_P1;SDS_P2;PMS_P1;PMS_P2;Temp;Humidity;BMP_temperature;BMP_pressure;BME280_temperature;BME280_humidity;BME280_pressure;Samples;Min_cycle;Max_cycle;Signal;HPM_P1;HPM_P2
2021/06/09 00:01:01;;;;;;;14.03;9.30;;;17.80;99.90;;;;;;5261597;27;20138;-60
2021/06/09 00:03:27;;;;;;;11.23;10.10;;;17.80;99.90;;;;;;5263846;27;20154;-60
2021/06/09 00:05:55;;;;;;;11.50;9.23;;;17.80;99.90;;;;;;5263654;27;20450;-58
2021/06/09 00:08:21;;;;;;;9.90;8.97;;;17.70;99.90;;;;;;5261422;27;20135;-58
2021/06/09 00:10:51;;;;;;;11.03;9.30;;;17.70;99.90;;;;;;5261608;27;20122;-59
2021/06/09 00:13:18;;;;;;;12.23;10.00;;;17.70;99.90;;;;;;5262985;27;20145;-59
2021/06/09 00:15:44;;;;;;;11.43;9.20;;;17.70;99.90;;;;;;5263916;27;20127;-61
2021/06/09 00:18:11;;;;;;;12.83;10.57;;;17.70;99.90;;;;;;5261657;27;20453;-60
2021/06/09 00:20:37;;;;;;;10.10;8.70;;;17.60;99.90;;;;;;5263887;27;20106;-57
2021/06/09 00:23:05;;;;;;;11.87;9.80;;;17.60;99.90;;;;;;5258069;27;82325;-60
2021/06/09 00:25:32;;;;;;;12.37;9.13;;;17.60;99.90;;;;;;5261064;27;20115;-59
2021/06/09 00:27:59;;;;;;;12.30;10.13;;;17.60;99.90;;;;;;5261388;27;20118;-58
2021/06/09 00:30:28;;;;;;;12.63;9.93;;;17.60;99.90;;;;;;5262813;27;20102;-60
2021/06/09 00:32:54;;;;;;;11.07;9.90;;;17.50;99.90;;;;;;5263605;27;20125;-58
2021/06/09 00:35:21;;;;;;;11.40;8.93;;;17.50;99.90;;;;;;5263655;27;20169;-60
2021/06/09 00:37:47;;;;;;;12.63;10.27;;;17.50;99.90;;;;;;5260925;27;20111;-58
2021/06/09 00:40:16;;;;;;;10.83;9.77;;;17.50;99.90;;;;;;5261517;27;20111;-60
2021/06/09 00:43:02;;;;;;;13.17;10.20;;;17.50;99.90;;;;;;5262366;27;20119;-59
2021/06/09 00:45:29;;;;;;;13.43;10.33;;;17.40;99.90;;;;;;5262597;27;20108;-58
2021/06/09 00:47:55;;;;;;;11.03;9.90;;;17.40;99.90;;;;;;5261543;27;20467;-58
2021/06/09 00:50:22;;;;;;;13.03;9.97;;;17.30;99.90;;;;;;5261462;27;20137;-60
2021/06/09 00:52:48;;;;;;;11.30;8.57;;;17.30;99.90;;;;;;5261864;27;20127;-59
2021/06/09 00:55:16;;;;;;;10.17;9.10;;;17.30;99.90;;;;;;5260608;27;20119;-57
2021/06/09 00:57:43;;;;;;;9.73;8.73;;;17.20;99.90;;;;;;5261797;27;20107;-60
2021/06/09 01:00:11;;;;;;;13.60;10.10;;;17.20;99.90;;;;;;5261166;27;20147;-58
2021/06/09 01:02:38;;;;;;;10.47;9.47;;;17.20;99.90;;;;;;5263554;27;20150;-58
2021/06/09 01:05:06;;;;;;;11.70;9.20;;;17.10;99.90;;;;;;5263544;27;20127;-58
2021/06/09 01:07:37;;;;;;;10.60;8.33;;;17.10;99.90;;;;;;5261171;27;20116;-57
2021/06/09 01:10:06;;;;;;;11.03;9.67;;;17.10;99.90;;;;;;5261319;27;20122;-61
2021/06/09 01:12:34;;;;;;;10.00;8.77;;;17.00;99.90;;;;;;5261191;27;20157;-59
2021/06/09 01:15:01;;;;;;;14.47;9.50;;;17.00;99.90;;;;;;5260978;27;20197;-59
2021/06/09 01:17:28;;;;;;;11.93;10.10;;;16.90;99.90;;;;;;5262430;27;20123;-60
2021/06/09 01:19:54;;;;;;;10.70;9.63;;;16.90;99.90;;;;;;5262386;27;20149;-60
2021/06/09 01:22:22;;;;;;;10.40;9.30;;;17.00;99.90;;;;;;5260808;27;20177;-58
2021/06/09 01:24:49;;;;;;;13.33;10.50;;;16.90;99.90;;;;;;5261502;27;20115;-61
2021/06/09 01:27:19;;;;;;;15.83;10.77;;;16.90;99.90;;;;;;5260691;27;20122;-58
2021/06/09 01:29:46;;;;;;;11.07;9.23;;;16.80;99.90;;;;;;5260900;27;20126;-58
2021/06/09 01:32:13;;;;;;;10.87;9.30;;;16.80;99.90;;;;;;5261216;27;20169;-59
2021/06/09 01:34:39;;;;;;;10.30;9.13;;;16.80;99.90;;;;;;5261154;27;20164;-59
2021/06/09 01:37:06;;;;;;;11.10;9.73;;;16.80;99.90;;;;;;5261536;27;20157;-59
2021/06/09 01:39:33;;;;;;;11.97;10.63;;;16.80;99.90;;;;;;5262508;27;20122;-60
2021/06/09 01:42:00;;;;;;;10.43;9.33;;;16.80;99.90;;;;;;5261056;27;20554;-59
2021/06/09 01:44:26;;;;;;;10.70;9.60;;;16.70;99.90;;;;;;5262017;27;20149;-59
2021/06/09 01:46:53;;;;;;;10.60;9.50;;;16.70;99.90;;;;;;5262006;27;20178;-58
2021/06/09 01:49:20;;;;;;;11.40;9.20;;;16.70;99.90;;;;;;5261722;27;20107;-59
2021/06/09 01:51:46;;;;;;;11.33;9.13;;;16.60;99.90;;;;;;5263333;27;20137;-60
2021/06/09 01:54:13;;;;;;;9.73;8.73;;;16.60;99.90;;;;;;5261972;27;20553;-60
2021/06/09 01:56:41;;;;;;;11.40;10.03;;;16.60;99.90;;;;;;5263322;27;20107;-59
2021/06/09 01:59:11;;;;;;;14.07;10.97;;;16.60;99.90;;;;;;5263191;27;20107;-61
2021/06/09 02:01:38;;;;;;;10.73;9.27;;;16.60;99.90;;;;;;5260871;27;20145;-58
2021/06/09 02:04:04;;;;;;;12.93;9.83;;;16.50;99.90;;;;;;5262228;27;20129;-61
2021/06/09 02:06:31;;;;;;;9.93;8.83;;;16.50;99.90;;;;;;5260700;27;20561;-58
2021/06/09 02:08:57;;;;;;;11.40;10.20;;;16.50;99.90;;;;;;5262160;27;20524;-59
2021/06/09 02:11:23;;;;;;;13.93;9.87;;;16.40;99.90;;;;;;5261762;27;20119;-60
2021/06/09 02:13:52;;;;;;;10.13;8.50;;;16.40;99.90;;;;;;5262915;27;20107;-61
2021/06/09 02:16:18;;;;;;;12.30;10.13;;;16.40;99.90;;;;;;5260902;27;20589;-61
2021/06/09 02:18:44;;;;;;;11.30;10.10;;;16.30;99.90;;;;;;5261261;27;20121;-59
2021/06/09 02:21:11;;;;;;;14.23;11.13;;;16.30;99.90;;;;;;5260756;27;20123;-58
2021/06/09 02:23:38;;;;;;;11.17;9.97;;;16.30;99.90;;;;;;5260204;27;20146;-58
2021/06/09 02:26:04;;;;;;;11.23;10.00;;;16.30;99.90;;;;;;5261350;27;20141;-60
2021/06/09 02:28:33;;;;;;;12.23;10.73;;;16.20;99.90;;;;;;5262038;27;20458;-58
2021/06/09 02:31:01;;;;;;;11.40;9.93;;;16.20;99.90;;;;;;5260697;27;20169;-59
2021/06/09 02:33:27;;;;;;;11.93;9.97;;;16.20;99.90;;;;;;5259938;27;20119;-59
2021/06/09 02:35:55;;;;;;;11.97;9.70;;;16.20;99.90;;;;;;5260431;27;20126;-60
2021/06/09 02:38:22;;;;;;;12.13;10.37;;;16.10;99.90;;;;;;5261371;27;20180;-58
2021/06/09 02:40:50;;;;;;;12.13;10.80;;;16.10;99.90;;;;;;5260476;27;20108;-60
2021/06/09 02:43:17;;;;;;;12.43;9.93;;;16.10;99.90;;;;;;5260435;27;20131;-61
2021/06/09 02:45:49;;;;;;;14.37;10.60;;;16.00;99.90;;;;;;5262855;27;20139;-59
2021/06/09 02:48:20;;;;;;;10.57;9.57;;;16.00;99.90;;;;;;5263118;27;20146;-59
2021/06/09 02:50:46;;;;;;;10.33;9.23;;;16.00;99.90;;;;;;5262979;27;20141;-59
2021/06/09 02:53:22;;;;;;;12.70;9.83;;;16.00;99.90;;;;;;5260284;27;20115;-59
2021/06/09 02:55:56;;;;;;;12.17;9.30;;;15.90;99.90;;;;;;5260539;27;20115;-59
2021/06/09 02:58:30;;;;;;;13.03;10.03;;;15.90;99.90;;;;;;5260535;27;20125;-59
2021/06/09 03:01:05;;;;;;;10.23;9.17;;;15.90;99.90;;;;;;5261796;27;20111;-59
2021/06/09 03:03:43;;;;;;;11.73;8.80;;;15.80;99.90;;;;;;5263017;27;20170;-60
2021/06/09 03:06:18;;;;;;;12.87;9.97;;;15.80;99.90;;;;;;5260252;27;20117;-58
2021/06/09 03:08:51;;;;;;;11.70;10.40;;;15.80;99.90;;;;;;5260320;27;20121;-59
2021/06/09 03:11:24;;;;;;;11.43;10.10;;;15.80;99.90;;;;;;5260648;27;20151;-59
2021/06/09 03:13:59;;;;;;;11.97;10.30;;;15.70;99.90;;;;;;5260435;27;20526;-58
2021/06/09 03:16:30;;;;;;;12.53;9.80;;;15.70;99.90;;;;;;5262682;27;20522;-59
2021/06/09 03:19:04;;;;;;;11.53;9.10;;;15.70;99.90;;;;;;5261421;27;20107;-60
2021/06/09 03:21:40;;;;;;;10.77;9.67;;;15.70;99.90;;;;;;5260241;27;20118;-57
2021/06/09 03:24:11;;;;;;;10.77;8.83;;;15.70;99.90;;;;;;5261144;27;20119;-58
2021/06/09 03:26:47;;;;;;;9.60;8.60;;;15.70;99.90;;;;;;5259712;27;20115;-59
2021/06/09 03:29:24;;;;;;;11.13;9.67;;;15.70;99.90;;;;;;5260397;27;20107;-59
2021/06/09 03:31:55;;;;;;;10.37;9.10;;;15.70;99.90;;;;;;5260465;27;20107;-59
2021/06/09 03:34:26;;;;;;;11.37;9.60;;;15.70;99.90;;;;;;5260877;27;20154;-57
2021/06/09 03:36:56;;;;;;;10.47;9.47;;;15.70;99.90;;;;;;5262681;27;20169;-59
2021/06/09 03:39:26;;;;;;;10.47;9.13;;;15.70;99.90;;;;;;5260247;27;20119;-58
2021/06/09 03:41:56;;;;;;;10.63;8.60;;;15.60;99.90;;;;;;5261996;27;20134;-58
2021/06/09 03:44:27;;;;;;;10.97;9.33;;;15.70;99.90;;;;;;5262314;27;20168;-58
2021/06/09 03:46:55;;;;;;;10.23;9.23;;;15.70;99.90;;;;;;5262492;27;20177;-58
2021/06/09 03:49:25;;;;;;;10.63;9.60;;;15.70;99.90;;;;;;5260486;27;20147;-59
2021/06/09 03:51:52;;;;;;;10.80;8.87;;;15.70;99.90;;;;;;5260936;27;20172;-59
2021/06/09 03:54:21;;;;;;;8.43;7.50;;;15.70;99.90;;;;;;5259845;27;20486;-58
2021/06/09 03:56:49;;;;;;;11.57;9.27;;;15.80;99.90;;;;;;5260319;27;20111;-58
2021/06/09 03:59:17;;;;;;;11.53;8.50;;;15.90;99.90;;;;;;5263151;27;20103;-59
2021/06/09 04:01:45;;;;;;;12.07;8.67;;;16.00;99.90;;;;;;5262596;27;20157;-60
2021/06/09 04:04:17;;;;;;;10.50;8.80;;;16.10;99.90;;;;;;5261984;27;20586;-61
2021/06/09 04:06:46;;;;;;;11.07;9.00;;;16.20;99.90;;;;;;5264075;27;20115;-60
2021/06/09 04:09:17;;;;;;;10.47;8.77;;;16.20;99.90;;;;;;5261567;27;20127;-59
2021/06/09 04:11:44;;;;;;;10.60;9.53;;;16.30;99.90;;;;;;5261761;27;20108;-59
2021/06/09 04:14:16;;;;;;;12.37;10.00;;;16.40;99.90;;;;;;5261537;27;20103;-59
2021/06/09 04:16:44;;;;;;;10.57;9.47;;;16.40;99.90;;;;;;5261274;27;20111;-59
2021/06/09 04:19:13;;;;;;;10.30;8.93;;;16.50;99.90;;;;;;5264045;27;20106;-59
2021/06/09 04:21:39;;;;;;;9.60;8.43;;;16.60;99.90;;;;;;5263894;27;20107;-59
2021/06/09 04:24:08;;;;;;;8.83;7.97;;;16.80;99.90;;;;;;5263376;27;20135;-59
2021/06/09 04:26:37;;;;;;;10.17;8.70;;;17.00;99.90;;;;;;5261551;27;20108;-57
2021/06/09 04:29:04;;;;;;;8.00;7.20;;;17.20;99.90;;;;;;5261561;27;20107;-58
2021/06/09 04:31:33;;;;;;;8.00;7.20;;;17.30;99.90;;;;;;5261480;27;20163;-59
2021/06/09 04:33:59;;;;;;;8.50;7.70;;;17.50;99.90;;;;;;5263930;27;20539;-59
2021/06/09 04:36:26;;;;;;;9.70;8.70;;;17.70;99.90;;;;;;5261770;27;20520;-59
2021/06/09 04:38:53;;;;;;;9.90;8.00;;;17.80;99.90;;;;;;5261758;27;20125;-58
2021/06/09 04:41:21;;;;;;;11.60;8.87;;;17.90;99.90;;;;;;5261999;27;20519;-57
2021/06/09 04:43:48;;;;;;;11.33;9.97;;;18.10;99.90;;;;;;5261292;27;20127;-57
2021/06/09 04:46:17;;;;;;;12.67;11.23;;;18.30;99.90;;;;;;5261492;27;20111;-58
2021/06/09 04:48:55;;;;;;;15.97;11.60;;;18.50;99.90;;;;;;5261521;27;20146;-58
2021/06/09 04:51:26;;;;;;;12.57;11.27;;;18.60;99.90;;;;;;5263853;27;20165;-58
2021/06/09 04:53:52;;;;;;;12.83;11.47;;;18.70;99.90;;;;;;5261408;27;20170;-60
2021/06/09 04:56:18;;;;;;;13.63;12.33;;;18.70;99.90;;;;;;5261205;27;20127;-58
2021/06/09 04:58:46;;;;;;;12.83;11.47;;;18.80;99.90;;;;;;5262330;27;20577;-59
2021/06/09 05:01:12;;;;;;;13.27;11.80;;;18.80;99.90;;;;;;5261292;27;20120;-58
2021/06/09 05:03:38;;;;;;;14.80;13.27;;;18.90;99.90;;;;;;5263694;27;20161;-59
2021/06/09 05:06:05;;;;;;;15.93;14.23;;;18.90;99.90;;;;;;5262923;27;20550;-60
2021/06/09 05:08:31;;;;;;;14.47;12.87;;;19.00;99.90;;;;;;5261293;27;20134;-59
2021/06/09 05:11:00;;;;;;;15.70;13.03;;;19.20;99.90;;;;;;5260819;27;20170;-58
2021/06/09 05:13:31;;;;;;;14.33;12.90;;;19.30;99.90;;;;;;5261237;27;20118;-59
2021/06/09 05:16:03;;;;;;;13.33;12.03;;;19.50;99.90;;;;;;5263294;27;20127;-57
2021/06/09 05:18:36;;;;;;;14.23;12.53;;;19.60;99.90;;;;;;5260441;27;20164;-60
2021/06/09 05:21:03;;;;;;;14.80;13.03;;;19.80;99.90;;;;;;5260525;27;20123;-58
2021/06/09 05:23:33;;;;;;;15.87;14.27;;;19.90;99.90;;;;;;5260544;27;20150;-57
2021/06/09 05:26:02;;;;;;;16.20;13.43;;;19.90;99.90;;;;;;5262495;27;20157;-59
2021/06/09 05:28:33;;;;;;;14.77;13.27;;;20.00;99.90;;;;;;5262291;27;20107;-57
2021/06/09 05:31:02;;;;;;;14.70;13.30;;;20.00;99.90;;;;;;5263429;27;20107;-58
2021/06/09 05:33:31;;;;;;;12.90;11.63;;;20.00;99.90;;;;;;5260980;27;20115;-59
2021/06/09 05:35:58;;;;;;;14.77;11.40;;;20.10;99.90;;;;;;5262939;27;20119;-58
2021/06/09 05:38:25;;;;;;;15.00;12.37;;;20.20;99.90;;;;;;5260644;27;20111;-58
2021/06/09 05:40:55;;;;;;;17.70;14.67;;;20.40;99.90;;;;;;5260971;27;20143;-61
2021/06/09 05:43:23;;;;;;;16.47;14.77;;;20.50;99.90;;;;;;5261165;27;20154;-59
2021/06/09 05:45:50;;;;;;;17.10;14.87;;;20.70;99.90;;;;;;5262364;27;20479;-60
2021/06/09 05:48:19;;;;;;;17.70;15.03;;;21.10;99.90;;;;;;5260510;27;20107;-59
2021/06/09 05:50:50;;;;;;;16.30;13.30;;;21.90;98.60;;;;;;5262566;27;20123;-58
2021/06/09 05:53:16;;;;;;;17.43;15.53;;;22.40;97.80;;;;;;5260879;27;20188;-58
2021/06/09 05:55:47;;;;;;;17.10;15.20;;;22.20;97.20;;;;;;5260234;27;20115;-60
2021/06/09 05:58:17;;;;;;;17.60;15.90;;;22.20;97.20;;;;;;5261042;27;20120;-58
2021/06/09 06:00:44;;;;;;;20.23;18.03;;;22.20;97.30;;;;;;5259563;27;20130;-59
2021/06/09 06:03:11;;;;;;;18.80;16.87;;;22.10;97.30;;;;;;5260785;27;20123;-58
2021/06/09 06:05:41;;;;;;;20.13;16.60;;;22.10;97.70;;;;;;5261066;27;20114;-58
2021/06/09 06:08:08;;;;;;;21.23;17.17;;;22.10;97.70;;;;;;5263327;27;20118;-60
2021/06/09 06:10:34;;;;;;;21.43;19.13;;;22.10;98.10;;;;;;5261263;27;20153;-58
2021/06/09 06:13:01;;;;;;;20.60;18.50;;;22.20;97.80;;;;;;5260968;27;20186;-61
2021/06/09 06:15:28;;;;;;;19.83;17.73;;;22.30;97.50;;;;;;5262552;27;20107;-60
2021/06/09 06:17:54;;;;;;;20.57;18.50;;;22.40;97.50;;;;;;5261052;27;20107;-63
2021/06/09 06:20:22;;;;;;;19.80;17.80;;;22.50;97.00;;;;;;5260165;27;20135;-59
2021/06/09 06:22:51;;;;;;;19.90;17.77;;;22.50;96.90;;;;;;5260437;27;20154;-59
2021/06/09 06:25:21;;;;;;;20.07;17.97;;;22.40;96.90;;;;;;5261048;27;20108;-59
2021/06/09 06:27:49;;;;;;;20.67;18.40;;;22.40;97.20;;;;;;5261139;27;20107;-57
2021/06/09 06:30:18;;;;;;;19.43;17.33;;;22.40;97.30;;;;;;5261506;27;20115;-60
2021/06/09 06:32:47;;;;;;;19.03;17.03;;;22.50;97.30;;;;;;5262309;27;20542;-60
2021/06/09 06:35:15;;;;;;;21.30;17.37;;;22.60;97.50;;;;;;5260504;27;20134;-59
2021/06/09 06:37:43;;;;;;;19.43;17.53;;;22.70;97.30;;;;;;5260878;27;20138;-59
2021/06/09 06:40:12;;;;;;;23.40;19.20;;;22.80;97.20;;;;;;5260976;27;20144;-59
2021/06/09 06:42:38;;;;;;;21.50;19.37;;;22.80;96.80;;;;;;5260908;27;20115;-62
2021/06/09 06:45:06;;;;;;;23.00;19.70;;;22.70;97.00;;;;;;5261140;27;20126;-59
2021/06/09 06:47:33;;;;;;;25.77;20.93;;;22.60;96.90;;;;;;5260424;27;20516;-59
2021/06/09 06:50:00;;;;;;;20.63;18.43;;;22.70;96.80;;;;;;5260734;27;20157;-59
2021/06/09 06:52:29;;;;;;;20.47;18.13;;;23.00;96.80;;;;;;5261089;27;20107;-59
2021/06/09 06:54:58;;;;;;;21.93;18.50;;;23.40;96.20;;;;;;5260244;27;20115;-60
2021/06/09 06:57:29;;;;;;;20.67;18.50;;;23.80;95.70;;;;;;5263094;27;20104;-59
2021/06/09 06:59:56;;;;;;;23.47;20.27;;;24.00;95.50;;;;;;5261428;27;20139;-60
2021/06/09 07:02:23;;;;;;;22.80;20.40;;;24.00;94.70;;;;;;5260851;27;20122;-59
2021/06/09 07:04:50;;;;;;;23.90;20.83;;;24.10;94.60;;;;;;5262931;27;20145;-60
2021/06/09 07:07:17;;;;;;;27.47;21.70;;;24.20;94.50;;;;;;5260438;27;20172;-60
2021/06/09 07:09:45;;;;;;;26.30;21.93;;;24.10;94.50;;;;;;5261025;27;20416;-58
2021/06/09 07:12:11;;;;;;;24.90;22.33;;;24.00;94.30;;;;;;5261045;27;20107;-57
2021/06/09 07:14:41;;;;;;;23.43;20.40;;;24.30;94.20;;;;;;5260574;27;20107;-60
2021/06/09 07:17:10;;;;;;;25.93;20.63;;;24.30;93.90;;;;;;5259552;27;20147;-61
2021/06/09 07:19:37;;;;;;;25.33;20.80;;;24.50;93.30;;;;;;5262791;27;20108;-60
2021/06/09 07:22:05;;;;;;;25.20;21.97;;;24.70;93.20;;;;;;5260749;27;20122;-60
2021/06/09 07:24:32;;;;;;;20.58;17.90;;;24.50;92.30;;;;;;5259775;27;20179;-61
2021/06/09 07:27:00;;;;;;;19.83;17.25;;;25.70;92.20;;;;;;5259754;27;20169;-58
2021/06/09 07:29:28;;;;;;;19.75;17.67;;;27.40;89.70;;;;;;5260227;27;20157;-60
2021/06/09 07:31:57;;;;;;;21.17;18.92;;;28.60;85.20;;;;;;5260846;27;20107;-58
2021/06/09 07:34:25;;;;;;;20.08;18.08;;;28.80;83.80;;;;;;5260994;27;20146;-61
2021/06/09 07:36:58;;;;;;;21.65;16.75;;;28.80;82.30;;;;;;5261809;27;20145;-57
2021/06/09 07:39:30;;;;;;;17.92;15.98;;;28.80;82.30;;;;;;5261477;27;20165;-57
2021/06/09 07:41:59;;;;;;;17.73;15.93;;;28.60;81.40;;;;;;5263576;27;20115;-59
2021/06/09 07:44:27;;;;;;;17.95;16.05;;;28.60;80.80;;;;;;5261980;27;20146;-59
2021/06/09 07:46:57;;;;;;;19.12;16.83;;;28.90;80.80;;;;;;5261683;27;20111;-58
2021/06/09 07:49:24;;;;;;;18.10;16.27;;;29.20;81.90;;;;;;5261967;27;20119;-58
2021/06/09 07:51:54;;;;;;;17.50;15.65;;;29.60;82.30;;;;;;5261857;27;20107;-60
2021/06/09 07:54:22;;;;;;;18.05;16.15;;;32.50;76.90;;;;;;5263320;27;20111;-60
2021/06/09 07:56:49;;;;;;;17.33;15.55;;;34.60;67.60;;;;;;5261702;27;20107;-59
2021/06/09 07:59:20;;;;;;;17.55;15.68;;;34.70;63.20;;;;;;5261827;27;20178;-59
2021/06/09 08:01:47;;;;;;;15.80;13.82;;;36.00;62.00;;;;;;5261443;27;20111;-60
2021/06/09 08:04:16;;;;;;;13.60;11.75;;;39.80;56.00;;;;;;5261382;27;20141;-61
2021/06/09 08:06:43;;;;;;;13.13;11.88;;;42.80;49.80;;;;;;5260871;27;20106;-59
2021/06/09 08:09:10;;;;;;;14.73;13.23;;;43.80;43.60;;;;;;5262679;27;20103;-61
2021/06/09 08:11:37;;;;;;;12.70;11.35;;;43.40;43.20;;;;;;5261262;27;20118;-59
2021/06/09 08:14:04;;;;;;;13.68;12.13;;;45.20;40.80;;;;;;5261315;27;20144;-59
2021/06/09 08:16:34;;;;;;;10.55;9.65;;;47.20;37.50;;;;;;5261517;27;20106;-59
2021/06/09 08:19:04;;;;;;;11.38;10.35;;;48.60;36.50;;;;;;5261392;27;20108;-59
2021/06/09 08:21:34;;;;;;;10.60;9.55;;;49.50;34.90;;;;;;5263363;27;20471;-59
2021/06/09 08:24:03;;;;;;;9.98;8.63;;;50.60;33.80;;;;;;5261303;27;20173;-59
2021/06/09 08:26:30;;;;;;;8.13;7.07;;;51.30;32.30;;;;;;5263898;27;20576;-59
2021/06/09 08:28:57;;;;;;;6.72;6.00;;;51.20;32.40;;;;;;5263735;27;20120;-62
2021/06/09 08:31:27;;;;;;;9.32;7.35;;;51.50;31.80;;;;;;5261339;27;20107;-59
2021/06/09 08:33:55;;;;;;;10.77;9.88;;;51.70;31.20;;;;;;5260841;27;20107;-60
2021/06/09 08:36:22;;;;;;;9.55;8.73;;;51.50;31.60;;;;;;5261915;27;20296;-60
2021/06/09 08:38:56;;;;;;;6.28;5.70;;;51.00;30.80;;;;;;5262856;27;20146;-62
2021/06/09 08:41:28;;;;;;;7.93;6.93;;;51.50;30.90;;;;;;5263806;27;20139;-62
2021/06/09 08:43:55;;;;;;;7.05;5.70;;;52.00;30.30;;;;;;5261754;27;20107;-60
2021/06/09 08:46:22;;;;;;;9.50;8.57;;;52.00;30.00;;;;;;5261307;27;20142;-60
2021/06/09 08:48:49;;;;;;;8.38;6.20;;;52.00;29.90;;;;;;5263946;27;20127;-60
2021/06/09 08:51:18;;;;;;;8.93;7.75;;;52.50;29.70;;;;;;5261132;27;20413;-60
2021/06/09 08:53:47;;;;;;;7.00;6.30;;;52.80;29.00;;;;;;5261030;27;20557;-62
2021/06/09 08:56:17;;;;;;;9.55;8.57;;;53.20;29.00;;;;;;5263264;27;20118;-62
2021/06/09 08:58:44;;;;;;;6.22;5.65;;;53.00;28.90;;;;;;5261252;27;20136;-61
2021/06/09 09:01:13;;;;;;;6.70;6.12;;;52.70;28.70;;;;;;5261214;27;20123;-62
2021/06/09 09:03:43;;;;;;;7.62;6.82;;;52.50;28.70;;;;;;5260762;27;20103;-59
2021/06/09 09:06:09;;;;;;;8.15;7.35;;;51.50;29.00;;;;;;5261871;27;20129;-60
2021/06/09 09:08:36;;;;;;;8.70;7.80;;;50.80;29.50;;;;;;5261728;27;20107;-60
2021/06/09 09:11:03;;;;;;;9.25;8.35;;;51.00;29.20;;;;;;5260972;27;20139;-60
2021/06/09 09:13:32;;;;;;;10.50;9.43;;;50.90;29.30;;;;;;5261129;27;20155;-59
2021/06/09 09:16:00;;;;;;;7.10;6.47;;;50.80;28.90;;;;;;5261462;27;20124;-61
2021/06/09 09:21:55;;;;;;;6.57;5.97;;;51.00;28.90;;;;;;5260413;27;20159;-60
2021/06/09 09:24:48;;;;;;;12.73;6.82;;;51.10;28.30;;;;;;5260581;27;20206;-61
2021/06/09 09:27:27;;;;;;;10.48;8.75;;;51.20;29.20;;;;;;5261817;27;20107;-59
2021/06/09 09:30:03;;;;;;;6.93;6.30;;;50.30;28.90;;;;;;5262146;27;20121;-59
2021/06/09 09:32:30;;;;;;;7.43;6.45;;;50.60;29.00;;;;;;5263522;27;20122;-58
2021/06/09 09:35:06;;;;;;;9.10;8.30;;;50.30;28.70;;;;;;5261193;27;20108;-58
2021/06/09 09:37:36;;;;;;;8.68;7.87;;;50.30;28.70;;;;;;5262407;27;20138;-59
2021/06/09 09:40:14;;;;;;;10.20;9.30;;;50.10;28.60;;;;;;5260978;27;20139;-58
2021/06/09 09:42:41;;;;;;;10.27;9.38;;;49.90;28.90;;;;;;5261100;27;20107;-58
2021/06/09 09:45:17;;;;;;;8.85;7.97;;;49.30;29.10;;;;;;5260868;27;20107;-61
2021/06/09 09:47:43;;;;;;;13.27;11.95;;;49.60;28.90;;;;;;5262217;27;20106;-59
2021/06/09 09:50:29;;;;;;;15.25;14.00;;;48.90;29.60;;;;;;5260879;27;20107;-59
2021/06/09 09:52:55;;;;;;;14.38;13.10;;;46.60;30.20;;;;;;5260537;27;20142;-61
2021/06/09 09:55:22;;;;;;;13.75;12.37;;;43.50;31.60;;;;;;5261288;27;20139;-61
2021/06/09 09:57:48;;;;;;;16.33;14.82;;;40.40;33.90;;;;;;5261614;27;20123;-60
2021/06/09 10:00:31;;;;;;;12.88;11.52;;;37.70;35.80;;;;;;5261935;27;20140;-61
2021/06/09 10:03:14;;;;;;;12.05;10.88;;;36.20;37.60;;;;;;5260860;27;20145;-59
2021/06/09 10:05:40;;;;;;;13.13;11.75;;;35.00;38.10;;;;;;5259479;27;20118;-59
2021/06/09 10:08:08;;;;;;;16.40;14.95;;;33.80;40.10;;;;;;5259552;27;20127;-60
2021/06/09 10:10:35;;;;;;;15.80;14.23;;;33.10;40.10;;;;;;5260369;27;20132;-60
2021/06/09 10:13:09;;;;;;;20.50;18.55;;;32.60;42.10;;;;;;5260971;27;20119;-60
2021/06/09 10:15:46;;;;;;;17.75;15.93;;;32.20;47.70;;;;;;5261715;27;20532;-59
2021/06/09 10:18:23;;;;;;;19.73;17.83;;;31.90;46.90;;;;;;5261321;27;20510;-59
2021/06/09 10:20:50;;;;;;;19.67;17.70;;;31.60;46.20;;;;;;5262022;27;20130;-59
2021/06/09 10:23:36;;;;;;;23.15;21.05;;;31.40;47.40;;;;;;5260517;27;20520;-60
2021/06/09 10:26:11;;;;;;;18.87;17.08;;;30.70;45.90;;;;;;5260270;27;20139;-60
2021/06/09 10:29:03;;;;;;;20.45;18.55;;;30.70;49.00;;;;;;5261844;27;20138;-59
2021/06/09 10:31:32;;;;;;;21.60;19.23;;;30.90;47.80;;;;;;5261992;27;20111;-59
2021/06/09 10:33:58;;;;;;;22.98;20.83;;;30.80;48.70;;;;;;5260539;27;20129;-60
2021/06/09 10:36:26;;;;;;;18.17;16.40;;;30.60;47.00;;;;;;5260761;27;20126;-58
2021/06/09 10:38:53;;;;;;;24.15;21.83;;;30.20;50.30;;;;;;5261937;27;20525;-61
2021/06/09 10:41:22;;;;;;;20.50;18.35;;;29.80;49.50;;;;;;5260349;27;20116;-60
2021/06/09 10:43:51;;;;;;;22.30;20.30;;;29.60;51.10;;;;;;5260639;27;20135;-59
2021/06/09 10:46:22;;;;;;;22.15;20.05;;;29.60;50.20;;;;;;5261544;27;20137;-59
2021/06/09 10:48:54;;;;;;;18.33;16.48;;;29.80;50.70;;;;;;5260855;27;20533;-58
2021/06/09 10:51:21;;;;;;;23.50;21.30;;;29.80;50.50;;;;;;5261121;27;20130;-58
2021/06/09 10:53:48;;;;;;;24.25;21.25;;;29.60;51.90;;;;;;5260290;27;20122;-59
2021/06/09 10:56:15;;;;;;;16.83;15.18;;;29.70;51.40;;;;;;5259920;27;20443;-58
2021/06/09 10:58:43;;;;;;;20.33;16.05;;;30.00;51.70;;;;;;5260756;27;20150;-61
2021/06/09 11:01:10;;;;;;;18.00;16.15;;;30.20;50.30;;;;;;5258160;27;20440;-59
2021/06/09 11:03:37;;;;;;;20.15;18.12;;;30.30;49.50;;;;;;5261956;27;20438;-60
2021/06/09 11:06:06;;;;;;;15.38;13.60;;;30.00;46.90;;;;;;5262470;27;20107;-59
2021/06/09 11:08:32;;;;;;;17.73;15.82;;;30.00;49.20;;;;;;5261676;27;20154;-60
2021/06/09 11:11:01;;;;;;;16.70;15.02;;;30.10;48.10;;;;;;5264430;27;20127;-59
2021/06/09 11:13:30;;;;;;;15.55;13.98;;;29.90;48.00;;;;;;5263980;27;20459;-59
2021/06/09 11:16:08;;;;;;;15.50;13.90;;;29.80;48.70;;;;;;5262363;27;20108;-58
2021/06/09 11:18:36;;;;;;;18.62;16.65;;;29.70;49.20;;;;;;5263320;27;20103;-59
2021/06/09 11:21:06;;;;;;;18.08;15.82;;;29.60;49.40;;;;;;5263320;27;20245;-58
2021/06/09 11:23:34;;;;;;;18.40;16.17;;;29.70;49.00;;;;;;5260255;27;20205;-58
2021/06/09 11:26:02;;;;;;;13.45;12.05;;;30.00;49.70;;;;;;5261821;27;20108;-59
2021/06/09 11:28:39;;;;;;;13.57;12.20;;;30.20;51.10;;;;;;5261769;27;20108;-58
2021/06/09 11:31:07;;;;;;;19.15;17.25;;;30.10;49.40;;;;;;5263628;27;20107;-59
2021/06/09 11:33:59;;;;;;;22.48;20.33;;;30.10;48.80;;;;;;5261980;27;20126;-59
2021/06/09 11:36:40;;;;;;;18.37;16.40;;;29.90;48.20;;;;;;5262005;27;20565;-58
2021/06/09 11:39:11;;;;;;;17.40;15.60;;;29.90;50.10;;;;;;5263012;27;20564;-59
2021/06/09 11:41:42;;;;;;;20.90;18.75;;;29.70;47.60;;;;;;5261801;27;20103;-58
2021/06/09 11:44:30;;;;;;;25.95;23.35;;;29.50;49.10;;;;;;5262681;27;20126;-59
2021/06/09 11:47:16;;;;;;;23.65;21.33;;;29.60;51.00;;;;;;5262229;27;20107;-60
2021/06/09 11:49:43;;;;;;;21.00;18.92;;;29.40;49.30;;;;;;5261637;27;20141;-57
2021/06/09 11:52:10;;;;;;;20.90;18.90;;;29.20;50.70;;;;;;5261678;27;20227;-55
2021/06/09 11:54:39;;;;;;;23.15;20.75;;;29.30;50.90;;;;;;5261669;27;20111;-58
2021/06/09 11:57:13;;;;;;;19.60;17.60;;;29.40;49.90;;;;;;5263324;27;20107;-58
2021/06/09 11:59:43;;;;;;;24.95;22.55;;;29.30;50.40;;;;;;5261686;27;20122;-58
2021/06/09 12:02:18;;;;;;;27.15;24.33;;;29.10;49.10;;;;;;5263192;27;20115;-56
2021/06/09 12:04:46;;;;;;;26.75;24.08;;;28.80;51.00;;;;;;5262046;27;20443;-57
2021/06/09 12:07:20;;;;;;;27.42;24.63;;;28.70;50.20;;;;;;5260729;27;20165;-60
2021/06/09 12:09:48;;;;;;;26.10;23.80;;;28.80;50.60;;;;;;5264100;27;20141;-60
2021/06/09 12:12:16;;;;;;;23.95;21.60;;;28.80;50.30;;;;;;5261142;27;20115;-57
2021/06/09 12:14:44;;;;;;;24.37;21.98;;;28.90;50.90;;;;;;5262306;27;20464;-58
2021/06/09 12:17:20;;;;;;;25.12;22.33;;;29.10;50.30;;;;;;5261346;27;20130;-60
2021/06/09 12:19:53;;;;;;;25.27;22.65;;;29.20;50.30;;;;;;5261447;27;20126;-57
2021/06/09 12:22:22;;;;;;;22.92;19.48;;;29.20;49.10;;;;;;5261481;27;20606;-58
2021/06/09 12:25:00;;;;;;;22.95;20.77;;;29.00;49.80;;;;;;5261459;27;20107;-60
2021/06/09 12:27:27;;;;;;;20.50;18.05;;;28.80;49.40;;;;;;5261500;27;20476;-61
2021/06/09 12:29:57;;;;;;;15.15;12.80;;;28.80;50.50;;;;;;5261555;27;20122;-60
2021/06/09 12:32:27;;;;;;;17.25;15.50;;;28.70;51.10;;;;;;5262253;27;20112;-58
2021/06/09 12:34:58;;;;;;;16.83;15.10;;;28.50;50.90;;;;;;5261418;27;20108;-57
2021/06/09 12:37:27;;;;;;;14.13;12.68;;;28.70;50.40;;;;;;5263345;27;20439;-59
2021/06/09 12:39:55;;;;;;;14.18;12.80;;;28.90;50.90;;;;;;5262358;27;20397;-60
2021/06/09 12:42:22;;;;;;;13.48;12.15;;;28.80;51.20;;;;;;5261789;27;20139;-59
2021/06/09 12:44:50;;;;;;;17.90;13.62;;;28.80;50.60;;;;;;5261058;27;20107;-59
2021/06/09 12:47:31;;;;;;;17.10;15.40;;;29.10;51.30;;;;;;5263320;27;20108;-59